Time;durP1;ratioP1;P1;durP2;ratioP2;P2;SDS_P1;SDS_P2;PMS_P1;PMS_P2;Temp;Humidity;BMP_temperature;BMP_pressure;BME280_temperature;BME280_humidity;BME280_pressure;Samples;Min_cycle;Max_cycle;Signal;HPM_P1;HPM_P2
2022/07/30 00:01:18;;;;;;;5.35;3.17;;;;;;;;;;4948993;29;20054;-86
2022/07/30 00:03:44;;;;;;;7.97;3.75;;;;;;;;;;4964902;28;20036;-86
2022/07/30 00:06:09;;;;;;;6.30;3.83;;;;;;;;;;4949880;28;20058;-86
2022/07/30 00:08:34;;;;;;;5.45;3.30;;;;;;;;;;4946847;28;20050;-85
2022/07/30 00:11:00;;;;;;;6.40;3.05;;;;;;;;;;4949127;28;20416;-86
2022/07/30 00:13:25;;;;;;;5.65;3.30;;;;;;;;;;4948088;29;20081;-85
2022/07/30 00:15:50;;;;;;;5.20;3.13;;;;;;;;;;4948157;28;20027;-86
2022/07/30 00:18:16;;;;;;;4.47;3.03;;;;;;;;;;4949072;28;20420;-86
2022/07/30 00:20:41;;;;;;;5.80;3.17;;;;;;;;;;4949009;28;20423;-86
2022/07/30 00:23:07;;;;;;;5.00;3.08;;;;;;;;;;4949167;28;20126;-86
2022/07/30 00:25:32;;;;;;;5.47;3.30;;;;;;;;;;4947457;28;20483;-86
2022/07/30 00:27:58;;;;;;;5.05;3.00;;;;;;;;;;4947927;28;20042;-85
2022/07/30 00:30:23;;;;;;;4.65;3.00;;;;;;;;;;4945623;28;20043;-86
2022/07/30 00:32:49;;;;;;;6.88;3.75;;;;;;;;;;4948693;28;20442;-87
2022/07/30 00:35:14;;;;;;;4.55;3.50;;;;;;;;;;4946820;28;20043;-85
2022/07/30 00:37:40;;;;;;;5.10;3.28;;;;;;;;;;4948287;28;20410;-85
2022/07/30 00:40:07;;;;;;;4.57;3.45;;;;;;;;;;4963677;28;20023;-86
2022/07/30 00:42:59;;;;;;;7.85;3.53;;;;;;;;;;4941160;28;20462;-85
2022/07/30 00:45:26;;;;;;;7.35;3.20;;;;;;;;;;4945923;29;20283;-85
2022/07/30 00:47:51;;;;;;;5.97;3.15;;;;;;;;;;4962581;28;20020;-85
2022/07/30 00:50:17;;;;;;;7.22;3.20;;;;;;;;;;4946546;28;20062;-85
2022/07/30 00:52:43;;;;;;;8.60;3.35;;;;;;;;;;4947930;28;20019;-86
2022/07/30 00:55:11;;;;;;;10.07;3.60;;;;;;;;;;4948915;28;20517;-85
2022/07/30 00:57:37;;;;;;;13.85;3.85;;;;;;;;;;4945624;28;20028;-85
2022/07/30 01:00:09;;;;;;;4.63;3.30;;;;;;;;;;4947762;28;20662;-85
2022/07/30 01:02:34;;;;;;;8.80;3.10;;;;;;;;;;4957414;28;20046;-85
2022/07/30 01:05:00;;;;;;;5.63;3.30;;;;;;;;;;4943790;28;20027;-86
2022/07/30 01:07:25;;;;;;;5.97;3.05;;;;;;;;;;4946439;28;20029;-85
2022/07/30 01:09:50;;;;;;;5.90;3.65;;;;;;;;;;4951062;28;20407;-84
2022/07/30 01:12:19;;;;;;;5.72;3.40;;;;;;;;;;4951145;28;20056;-85
2022/07/30 01:14:44;;;;;;;6.05;2.90;;;;;;;;;;4948552;28;20034;-85
2022/07/30 01:17:10;;;;;;;6.85;3.35;;;;;;;;;;4948323;28;20062;-85
2022/07/30 01:19:48;;;;;;;5.10;2.90;;;;;;;;;;4964807;28;20027;-85
2022/07/30 01:22:29;;;;;;;6.43;3.30;;;;;;;;;;4951109;29;20047;-84
2022/07/30 01:24:57;;;;;;;6.50;3.35;;;;;;;;;;4951468;29;20072;-84
2022/07/30 01:27:23;;;;;;;6.78;3.17;;;;;;;;;;4963244;28;20031;-84
2022/07/30 01:29:51;;;;;;;4.03;2.95;;;;;;;;;;4951221;28;20027;-85
2022/07/30 01:32:20;;;;;;;4.88;2.90;;;;;;;;;;4947342;28;20050;-85
2022/07/30 01:34:46;;;;;;;4.80;3.10;;;;;;;;;;4949558;28;20051;-85
2022/07/30 01:37:14;;;;;;;9.35;3.40;;;;;;;;;;4950341;29;20019;-85
2022/07/30 01:39:40;;;;;;;8.45;3.45;;;;;;;;;;4949549;28;20054;-85
2022/07/30 01:42:08;;;;;;;8.13;3.85;;;;;;;;;;4949660;28;20072;-85
2022/07/30 01:44:34;;;;;;;9.85;4.00;;;;;;;;;;4951718;28;20063;-85
2022/07/30 01:47:01;;;;;;;6.50;4.03;;;;;;;;;;4953009;28;20066;-85
2022/07/30 01:49:28;;;;;;;5.38;3.45;;;;;;;;;;4949339;29;20116;-84
2022/07/30 01:51:54;;;;;;;5.70;3.90;;;;;;;;;;4951446;28;20046;-85
2022/07/30 01:54:20;;;;;;;7.20;3.83;;;;;;;;;;4950394;28;20466;-85
2022/07/30 01:56:48;;;;;;;7.15;3.97;;;;;;;;;;4947172;28;20427;-84
2022/07/30 01:59:16;;;;;;;8.40;3.72;;;;;;;;;;4947757;28;20038;-85
2022/07/30 02:01:42;;;;;;;6.97;3.58;;;;;;;;;;4943048;28;20074;-87
2022/07/30 02:04:07;;;;;;;6.32;3.80;;;;;;;;;;4948799;29;20050;-85
2022/07/30 02:07:03;;;;;;;5.68;3.50;;;;;;;;;;4942299;28;20046;-85
2022/07/30 02:09:36;;;;;;;4.78;3.42;;;;;;;;;;4922105;28;20035;-85
2022/07/30 02:15:09;;;;;;;7.68;3.38;;;;;;;;;;4946547;28;20034;-84
2022/07/30 02:17:42;;;;;;;5.90;3.30;;;;;;;;;;4960928;28;20546;-84
2022/07/30 02:20:13;;;;;;;5.43;3.58;;;;;;;;;;4945480;28;20058;-85
2022/07/30 02:22:43;;;;;;;6.80;3.63;;;;;;;;;;4938144;28;20015;-83
2022/07/30 02:25:12;;;;;;;8.85;4.15;;;;;;;;;;4950594;28;20031;-84
2022/07/30 02:27:40;;;;;;;6.45;3.70;;;;;;;;;;4948580;28;20040;-84
2022/07/30 02:30:07;;;;;;;5.95;3.72;;;;;;;;;;4948712;28;20117;-84
2022/07/30 02:32:37;;;;;;;5.72;3.47;;;;;;;;;;4948559;28;20070;-84
2022/07/30 02:35:11;;;;;;;12.38;4.75;;;;;;;;;;4963865;28;20130;-84
2022/07/30 02:37:41;;;;;;;6.57;4.53;;;;;;;;;;4947695;28;20122;-85
2022/07/30 02:40:08;;;;;;;9.80;4.15;;;;;;;;;;4948412;29;20491;-84
2022/07/30 02:42:33;;;;;;;8.30;3.80;;;;;;;;;;4950327;28;20762;-85
2022/07/30 02:45:00;;;;;;;10.45;3.97;;;;;;;;;;4962867;28;20043;-84
2022/07/30 02:47:26;;;;;;;5.18;3.72;;;;;;;;;;4951834;28;20036;-84
2022/07/30 02:49:53;;;;;;;6.63;3.53;;;;;;;;;;4949936;28;20110;-85
2022/07/30 02:52:20;;;;;;;7.78;3.35;;;;;;;;;;4956925;28;20527;-84
2022/07/30 02:54:48;;;;;;;7.10;3.42;;;;;;;;;;4946437;28;20092;-84
2022/07/30 02:57:14;;;;;;;7.45;3.72;;;;;;;;;;4964905;28;20132;-85
2022/07/30 02:59:40;;;;;;;5.78;3.40;;;;;;;;;;4947890;28;20051;-84
2022/07/30 03:02:08;;;;;;;6.07;3.67;;;;;;;;;;4949930;28;20126;-85
2022/07/30 03:04:35;;;;;;;6.00;3.58;;;;;;;;;;4948207;28;20023;-84
2022/07/30 03:07:01;;;;;;;7.32;4.28;;;;;;;;;;4950569;29;20030;-85
2022/07/30 03:09:27;;;;;;;5.78;3.67;;;;;;;;;;4962413;28;20031;-85
2022/07/30 03:11:54;;;;;;;8.93;3.88;;;;;;;;;;4950109;28;20031;-85
2022/07/30 03:14:20;;;;;;;8.15;4.32;;;;;;;;;;4950358;28;20027;-85
2022/07/30 03:16:54;;;;;;;7.28;4.10;;;;;;;;;;4947841;28;20027;-84
2022/07/30 03:19:22;;;;;;;8.40;4.30;;;;;;;;;;4965314;28;20553;-85
2022/07/30 03:21:49;;;;;;;4.80;3.38;;;;;;;;;;4948650;28;20129;-85
2022/07/30 03:24:16;;;;;;;7.53;3.70;;;;;;;;;;4948246;28;20527;-84
2022/07/30 03:26:42;;;;;;;5.38;3.17;;;;;;;;;;4950045;28;20038;-85
2022/07/30 03:29:10;;;;;;;7.45;3.90;;;;;;;;;;4949024;28;20533;-85
2022/07/30 03:31:37;;;;;;;8.25;4.15;;;;;;;;;;4949743;28;20027;-85
2022/07/30 03:34:02;;;;;;;8.60;3.80;;;;;;;;;;4950007;28;20019;-85
2022/07/30 03:36:28;;;;;;;7.20;3.80;;;;;;;;;;4947844;29;20027;-85
2022/07/30 03:38:54;;;;;;;8.73;3.80;;;;;;;;;;4950394;28;20047;-84
2022/07/30 03:41:20;;;;;;;8.27;4.15;;;;;;;;;;4948780;28;20027;-85
2022/07/30 03:43:46;;;;;;;9.07;5.05;;;;;;;;;;4949742;28;20118;-84
2022/07/30 03:46:12;;;;;;;6.53;3.78;;;;;;;;;;4944411;28;20146;-84
2022/07/30 03:48:39;;;;;;;5.65;3.53;;;;;;;;;;4948335;28;20050;-85
2022/07/30 03:51:08;;;;;;;9.48;3.72;;;;;;;;;;4946606;28;20038;-84
2022/07/30 03:53:34;;;;;;;8.80;3.83;;;;;;;;;;4948860;28;20042;-84
2022/07/30 03:56:00;;;;;;;10.63;3.70;;;;;;;;;;4948977;28;20035;-84
2022/07/30 03:58:26;;;;;;;7.90;3.70;;;;;;;;;;4947860;28;20020;-85
2022/07/30 04:00:51;;;;;;;7.30;3.70;;;;;;;;;;4948637;28;20038;-84
2022/07/30 04:03:32;;;;;;;8.23;4.10;;;;;;;;;;4948734;28;20511;-85
2022/07/30 04:05:58;;;;;;;7.82;4.07;;;;;;;;;;4946392;28;20039;-85
2022/07/30 04:08:23;;;;;;;8.15;4.22;;;;;;;;;;4945618;28;20042;-85
2022/07/30 04:10:50;;;;;;;5.25;3.42;;;;;;;;;;4948526;28;20554;-84
2022/07/30 04:13:16;;;;;;;8.05;4.25;;;;;;;;;;4949421;28;20074;-84
2022/07/30 04:16:08;;;;;;;8.25;3.42;;;;;;;;;;4962973;28;20039;-85
2022/07/30 04:18:41;;;;;;;6.30;3.78;;;;;;;;;;4941437;28;20067;-84
2022/07/30 04:21:10;;;;;;;11.88;3.72;;;;;;;;;;4947519;28;20047;-85
2022/07/30 04:23:38;;;;;;;5.55;3.42;;;;;;;;;;4947832;28;20086;-84
2022/07/30 04:26:03;;;;;;;7.53;4.03;;;;;;;;;;4947450;28;20035;-85
2022/07/30 04:28:29;;;;;;;9.40;3.88;;;;;;;;;;4949490;28;20074;-85
2022/07/30 04:30:54;;;;;;;7.88;4.20;;;;;;;;;;4964194;28;20031;-85
2022/07/30 04:33:20;;;;;;;8.13;4.00;;;;;;;;;;4947933;28;20086;-85
2022/07/30 04:35:45;;;;;;;6.95;4.03;;;;;;;;;;4948763;28;20035;-84
2022/07/30 04:38:13;;;;;;;7.78;4.20;;;;;;;;;;4946964;28;20594;-85
2022/07/30 04:40:39;;;;;;;14.48;4.60;;;;;;;;;;4947300;28;20110;-85
2022/07/30 04:43:04;;;;;;;8.93;4.32;;;;;;;;;;4948303;28;20101;-85
2022/07/30 04:45:30;;;;;;;10.60;4.15;;;;;;;;;;4947313;28;20577;-85
2022/07/30 04:47:55;;;;;;;9.60;5.55;;;;;;;;;;4951155;28;20118;-85
2022/07/30 04:50:23;;;;;;;10.07;4.85;;;;;;;;;;4950578;28;20035;-84
2022/07/30 04:52:49;;;;;;;15.55;6.75;;;;;;;;;;4965047;28;20043;-85
2022/07/30 04:55:17;;;;;;;16.73;6.15;;;;;;;;;;4953153;28;20639;-84
2022/07/30 04:57:44;;;;;;;12.52;6.43;;;;;;;;;;4950914;28;20034;-84
2022/07/30 05:00:10;;;;;;;17.65;6.80;;;;;;;;;;4951665;28;20055;-85
2022/07/30 05:02:37;;;;;;;12.45;6.60;;;;;;;;;;4951860;28;20059;-84
2022/07/30 05:05:04;;;;;;;13.30;6.47;;;;;;;;;;4951586;28;20426;-85
2022/07/30 05:07:30;;;;;;;15.07;6.75;;;;;;;;;;4952098;28;20810;-84
2022/07/30 05:09:56;;;;;;;19.95;6.30;;;;;;;;;;4951392;29;20118;-85
2022/07/30 05:12:31;;;;;;;35.92;7.10;;;;;;;;;;4951682;28;20126;-83
2022/07/30 05:14:57;;;;;;;40.05;6.35;;;;;;;;;;4965322;28;20418;-85
2022/07/30 05:17:22;;;;;;;26.38;6.85;;;;;;;;;;4951693;28;20126;-84
2022/07/30 05:19:47;;;;;;;17.83;7.35;;;;;;;;;;4951743;28;20422;-86
2022/07/30 05:22:13;;;;;;;27.00;7.82;;;;;;;;;;4963642;28;20050;-84
2022/07/30 05:24:38;;;;;;;17.92;7.78;;;;;;;;;;4952147;28;20086;-85
2022/07/30 05:27:03;;;;;;;12.68;6.68;;;;;;;;;;4951041;28;20039;-85
2022/07/30 05:29:29;;;;;;;12.80;7.43;;;;;;;;;;4961203;28;20023;-85
2022/07/30 05:31:54;;;;;;;19.60;8.13;;;;;;;;;;4950748;28;20119;-85
2022/07/30 05:34:19;;;;;;;23.92;6.93;;;;;;;;;;4951148;29;20094;-86
2022/07/30 05:36:45;;;;;;;29.33;6.93;;;;;;;;;;4952298;28;20031;-88
2022/07/30 05:39:10;;;;;;;19.73;7.93;;;;;;;;;;4952034;28;20043;-85
2022/07/30 05:41:36;;;;;;;18.48;7.82;;;;;;;;;;4952615;28;20102;-86
2022/07/30 05:44:01;;;;;;;17.60;7.18;;;;;;;;;;4947306;28;20074;-86
2022/07/30 05:46:29;;;;;;;12.75;7.32;;;;;;;;;;4952723;29;20027;-87
2022/07/30 05:48:55;;;;;;;18.02;7.35;;;;;;;;;;4952082;29;20051;-88
2022/07/30 05:51:20;;;;;;;16.52;7.50;;;;;;;;;;4953354;28;20027;-88
2022/07/30 05:53:46;;;;;;;12.50;6.97;;;;;;;;;;4951519;28;20418;-92
2022/07/30 05:56:12;;;;;;;13.02;6.72;;;;;;;;;;4954871;28;20091;-94
2022/07/30 05:58:37;;;;;;;12.00;6.63;;;;;;;;;;4955335;28;20039;-94
2022/07/30 06:01:03;;;;;;;10.13;6.20;;;;;;;;;;4953602;29;20038;-96
2022/07/30 06:03:28;;;;;;;13.13;6.70;;;;;;;;;;4952434;28;20055;-94
2022/07/30 06:05:53;;;;;;;12.13;7.22;;;;;;;;;;4968090;28;20116;-95
2022/07/30 06:08:19;;;;;;;11.27;6.63;;;;;;;;;;4953418;28;20042;-94
2022/07/30 06:10:44;;;;;;;11.55;6.60;;;;;;;;;;4952098;28;20027;-96
2022/07/30 06:13:10;;;;;;;15.65;7.13;;;;;;;;;;4952728;29;20540;-95
2022/07/30 06:15:35;;;;;;;13.30;7.30;;;;;;;;;;4952668;28;20039;-94
2022/07/30 06:18:01;;;;;;;17.25;6.93;;;;;;;;;;4969499;28;20533;-94
2022/07/30 06:20:26;;;;;;;17.23;8.00;;;;;;;;;;4971933;28;20031;-92
2022/07/30 06:22:51;;;;;;;12.73;7.03;;;;;;;;;;4955693;28;20102;-90
2022/07/30 06:25:17;;;;;;;13.50;6.95;;;;;;;;;;4954952;29;20054;-91
2022/07/30 06:27:42;;;;;;;12.85;7.22;;;;;;;;;;4954475;28;20057;-89
2022/07/30 06:30:09;;;;;;;14.63;6.90;;;;;;;;;;4953386;28;20432;-89
2022/07/30 06:32:35;;;;;;;16.98;8.43;;;;;;;;;;4954681;28;20545;-87
2022/07/30 06:35:00;;;;;;;14.55;7.20;;;;;;;;;;4957218;28;20175;-86
2022/07/30 06:37:26;;;;;;;15.93;7.55;;;;;;;;;;4950624;29;20131;-85
2022/07/30 06:39:51;;;;;;;16.15;8.70;;;;;;;;;;4966201;28;20544;-84
2022/07/30 06:42:17;;;;;;;13.30;7.50;;;;;;;;;;4950384;28;20444;-83
2022/07/30 06:44:42;;;;;;;15.45;7.55;;;;;;;;;;4951074;28;20075;-83
2022/07/30 06:47:08;;;;;;;20.05;8.70;;;;;;;;;;4951312;28;20047;-83
2022/07/30 06:49:35;;;;;;;15.93;8.30;;;;;;;;;;4943121;28;20478;-83
2022/07/30 06:52:00;;;;;;;16.85;8.45;;;;;;;;;;4952029;28;20038;-83
2022/07/30 06:54:26;;;;;;;17.40;8.68;;;;;;;;;;4965815;28;20035;-82
2022/07/30 06:56:51;;;;;;;16.27;8.07;;;;;;;;;;4965597;28;20035;-82
2022/07/30 06:59:17;;;;;;;14.70;8.55;;;;;;;;;;4949738;28;20609;-82
2022/07/30 07:01:42;;;;;;;13.32;7.75;;;;;;;;;;4950649;28;20031;-82
2022/07/30 07:04:08;;;;;;;15.55;7.72;;;;;;;;;;4951602;29;20417;-83
2022/07/30 07:06:33;;;;;;;12.63;6.07;;;;;;;;;;4950356;28;20388;-83
2022/07/30 07:08:59;;;;;;;18.02;6.75;;;;;;;;;;4955195;28;20568;-83
2022/07/30 07:11:25;;;;;;;12.60;6.72;;;;;;;;;;4951512;28;20087;-83
2022/07/30 07:13:50;;;;;;;16.25;6.45;;;;;;;;;;4951189;28;20094;-83
2022/07/30 07:16:20;;;;;;;12.18;6.35;;;;;;;;;;4966008;28;20399;-82
2022/07/30 07:18:46;;;;;;;13.35;6.00;;;;;;;;;;4957833;28;20594;-83
2022/07/30 07:21:11;;;;;;;12.90;5.60;;;;;;;;;;4963640;28;20241;-83
2022/07/30 07:23:36;;;;;;;10.75;5.32;;;;;;;;;;4949176;28;20054;-82
2022/07/30 07:26:02;;;;;;;10.90;4.47;;;;;;;;;;4950938;28;20040;-83
2022/07/30 07:28:27;;;;;;;8.18;4.50;;;;;;;;;;4965956;28;20031;-84
2022/07/30 07:30:53;;;;;;;6.72;4.13;;;;;;;;;;4949147;28;20043;-82
2022/07/30 07:33:18;;;;;;;7.05;3.30;;;;;;;;;;4964931;28;20511;-83
2022/07/30 07:35:43;;;;;;;6.15;3.45;;;;;;;;;;4948940;28;20590;-83
2022/07/30 07:38:09;;;;;;;6.70;4.20;;;;;;;;;;4950439;28;20514;-83
2022/07/30 07:40:34;;;;;;;11.25;4.60;;;;;;;;;;4950450;28;20031;-83
2022/07/30 07:42:59;;;;;;;6.50;4.18;;;;;;;;;;4950400;28;20027;-84
2022/07/30 07:45:25;;;;;;;10.57;3.70;;;;;;;;;;4963740;28;20039;-84
2022/07/30 07:47:50;;;;;;;6.43;4.00;;;;;;;;;;4948601;28;20455;-84
2022/07/30 07:50:17;;;;;;;7.80;3.72;;;;;;;;;;4949266;28;20031;-83
2022/07/30 07:52:43;;;;;;;11.80;3.53;;;;;;;;;;4962128;28;20031;-83
2022/07/30 07:55:09;;;;;;;11.93;3.40;;;;;;;;;;4963988;28;20756;-84
2022/07/30 07:57:43;;;;;;;8.18;3.28;;;;;;;;;;4949175;28;20758;-83
2022/07/30 08:00:11;;;;;;;5.72;3.97;;;;;;;;;;4948452;28;20039;-83
2022/07/30 08:02:37;;;;;;;9.07;4.18;;;;;;;;;;4948697;28;20035;-83
2022/07/30 08:05:04;;;;;;;5.68;3.55;;;;;;;;;;4948591;28;20042;-83
2022/07/30 08:07:30;;;;;;;4.28;2.55;;;;;;;;;;4947687;28;20031;-84
2022/07/30 08:09:56;;;;;;;4.53;3.20;;;;;;;;;;4950055;28;20102;-83
2022/07/30 08:12:21;;;;;;;5.90;2.92;;;;;;;;;;4949248;28;20119;-84
2022/07/30 08:14:47;;;;;;;4.88;2.67;;;;;;;;;;4947916;28;20035;-84
2022/07/30 08:17:12;;;;;;;4.35;2.22;;;;;;;;;;4964016;28;20050;-83
2022/07/30 08:19:38;;;;;;;7.22;3.65;;;;;;;;;;4944348;28;20082;-83
2022/07/30 08:22:04;;;;;;;7.57;3.40;;;;;;;;;;4940944;28;20068;-83
2022/07/30 08:24:29;;;;;;;6.60;3.22;;;;;;;;;;4949845;28;20549;-82
2022/07/30 08:26:55;;;;;;;8.18;3.42;;;;;;;;;;4947095;28;20051;-83
2022/07/30 08:29:20;;;;;;;7.68;3.50;;;;;;;;;;4947395;28;20039;-82
2022/07/30 08:31:45;;;;;;;6.38;3.05;;;;;;;;;;4963590;28;20411;-83
2022/07/30 08:34:12;;;;;;;7.00;3.30;;;;;;;;;;4951181;28;20023;-83
2022/07/30 08:36:37;;;;;;;4.95;2.85;;;;;;;;;;4947875;28;20039;-83
2022/07/30 08:39:03;;;;;;;4.97;3.00;;;;;;;;;;4949085;28;20043;-84
2022/07/30 08:41:29;;;;;;;4.15;2.88;;;;;;;;;;4948184;28;20035;-84
2022/07/30 08:43:59;;;;;;;3.85;2.95;;;;;;;;;;4949265;28;20050;-83
2022/07/30 08:46:28;;;;;;;4.82;2.65;;;;;;;;;;4961971;28;20178;-83
2022/07/30 08:48:54;;;;;;;5.43;3.03;;;;;;;;;;4936013;28;20032;-84
2022/07/30 08:51:20;;;;;;;9.73;2.85;;;;;;;;;;4963211;28;20113;-84
2022/07/30 08:53:46;;;;;;;2.97;2.13;;;;;;;;;;4945561;28;20568;-83
2022/07/30 08:56:12;;;;;;;4.72;2.40;;;;;;;;;;4947954;28;20507;-85
2022/07/30 08:58:37;;;;;;;6.60;3.25;;;;;;;;;;4947769;28;20046;-83
2022/07/30 09:01:04;;;;;;;5.97;2.10;;;;;;;;;;4945397;28;20023;-83
2022/07/30 09:03:30;;;;;;;7.80;2.30;;;;;;;;;;4944592;28;20035;-83
2022/07/30 09:05:56;;;;;;;3.80;2.20;;;;;;;;;;4945738;28;20044;-82
2022/07/30 09:08:21;;;;;;;4.88;2.60;;;;;;;;;;4947548;28;20108;-84
2022/07/30 09:10:47;;;;;;;5.90;2.40;;;;;;;;;;4942664;28;20054;-84
2022/07/30 09:13:29;;;;;;;5.05;2.40;;;;;;;;;;4953398;28;20074;-84
2022/07/30 09:15:55;;;;;;;3.45;2.22;;;;;;;;;;4947077;28;20051;-85
2022/07/30 09:18:31;;;;;;;5.85;2.33;;;;;;;;;;4945306;28;20083;-82
2022/07/30 09:21:12;;;;;;;4.85;2.90;;;;;;;;;;4948704;28;20515;-84
2022/07/30 09:23:37;;;;;;;3.53;2.42;;;;;;;;;;4946985;28;20051;-84
2022/07/30 09:26:02;;;;;;;6.88;2.70;;;;;;;;;;4945733;28;20046;-83
2022/07/30 09:28:31;;;;;;;4.45;2.35;;;;;;;;;;4939822;28;20467;-84
2022/07/30 09:30:57;;;;;;;4.32;2.30;;;;;;;;;;4946276;28;20079;-85
2022/07/30 09:33:32;;;;;;;5.43;2.50;;;;;;;;;;4951267;28;20043;-86
2022/07/30 09:35:58;;;;;;;4.53;2.17;;;;;;;;;;4949223;28;20087;-85
2022/07/30 09:38:23;;;;;;;5.78;2.53;;;;;;;;;;4948368;28;20035;-86
2022/07/30 09:40:50;;;;;;;3.70;2.25;;;;;;;;;;4949563;28;20613;-85
2022/07/30 09:43:16;;;;;;;5.93;2.55;;;;;;;;;;4949698;28;20119;-85
2022/07/30 09:45:54;;;;;;;3.60;2.03;;;;;;;;;;4958958;28;20708;-88
2022/07/30 09:48:25;;;;;;;3.20;2.08;;;;;;;;;;4953192;28;20039;-87
2022/07/30 09:50:53;;;;;;;3.53;2.13;;;;;;;;;;4945560;28;20487;-84
2022/07/30 09:53:21;;;;;;;2.92;2.03;;;;;;;;;;4953765;28;20550;-87
2022/07/30 09:55:47;;;;;;;4.20;2.05;;;;;;;;;;4968651;28;20028;-90
2022/07/30 09:58:13;;;;;;;4.32;2.33;;;;;;;;;;4956161;29;20093;-93
2022/07/30 10:00:40;;;;;;;2.90;2.03;;;;;;;;;;4958849;28;20121;-94
2022/07/30 10:03:25;;;;;;;3.97;1.83;;;;;;;;;;4951864;28;20039;-91
2022/07/30 10:05:56;;;;;;;3.95;1.83;;;;;;;;;;4948683;28;20073;-93
2022/07/30 10:08:41;;;;;;;2.63;1.90;;;;;;;;;;4966696;28;20039;-90
2022/07/30 10:11:11;;;;;;;3.83;1.80;;;;;;;;;;4951507;28;20043;-86
2022/07/30 10:13:37;;;;;;;4.55;1.92;;;;;;;;;;4951138;28;20027;-85
2022/07/30 10:16:03;;;;;;;3.20;2.63;;;;;;;;;;4950246;29;20088;-85
2022/07/30 10:18:30;;;;;;;11.82;5.88;;;;;;;;;;4946605;28;20129;-86
2022/07/30 10:20:55;;;;;;;7.03;2.22;;;;;;;;;;4951739;28;20046;-85
2022/07/30 10:23:23;;;;;;;3.38;2.20;;;;;;;;;;4950723;28;20039;-86
2022/07/30 10:25:49;;;;;;;1.83;1.73;;;;;;;;;;4945406;28;20043;-87
2022/07/30 10:28:16;;;;;;;2.60;2.13;;;;;;;;;;4945219;28;20031;-86
2022/07/30 10:30:42;;;;;;;4.63;2.00;;;;;;;;;;4943039;28;20118;-86
2022/07/30 10:33:08;;;;;;;3.92;2.00;;;;;;;;;;4949856;28;20470;-84
2022/07/30 10:35:34;;;;;;;3.50;1.98;;;;;;;;;;4964218;28;20094;-87
2022/07/30 10:37:59;;;;;;;5.68;2.25;;;;;;;;;;4952277;28;20079;-88
2022/07/30 10:40:28;;;;;;;3.53;2.20;;;;;;;;;;4967172;28;20042;-87
2022/07/30 10:43:34;;;;;;;5.05;2.03;;;;;;;;;;4961941;28;20039;-86
2022/07/30 10:46:29;;;;;;;3.35;1.95;;;;;;;;;;4963142;28;20091;-86
2022/07/30 10:49:07;;;;;;;4.70;2.20;;;;;;;;;;4945109;29;20141;-87
2022/07/30 10:51:46;;;;;;;4.35;1.90;;;;;;;;;;4967213;28;20035;-88
2022/07/30 10:54:41;;;;;;;3.22;2.20;;;;;;;;;;4965733;28;20038;-87
2022/07/30 10:57:15;;;;;;;3.22;1.88;;;;;;;;;;4955570;28;20542;-86
2022/07/30 10:59:49;;;;;;;2.90;2.00;;;;;;;;;;4961820;28;20588;-85
2022/07/30 11:02:16;;;;;;;6.30;2.25;;;;;;;;;;4947544;28;20040;-86
2022/07/30 11:04:41;;;;;;;3.35;1.90;;;;;;;;;;4942103;28;20019;-89
2022/07/30 11:07:22;;;;;;;2.30;1.90;;;;;;;;;;4950688;29;20019;-89
2022/07/30 11:09:52;;;;;;;3.80;2.30;;;;;;;;;;4948157;29;20117;-92
2022/07/30 11:12:51;;;;;;;7.72;2.10;;;;;;;;;;4949963;28;20075;-89
2022/07/30 11:15:16;;;;;;;3.65;1.98;;;;;;;;;;4937000;29;20130;-87
2022/07/30 11:18:03;;;;;;;2.45;2.05;;;;;;;;;;4965539;28;20106;-86
2022/07/30 11:20:30;;;;;;;2.55;1.90;;;;;;;;;;4965390;28;20051;-87
2022/07/30 11:23:17;;;;;;;3.45;2.10;;;;;;;;;;4951360;28;20039;-87
2022/07/30 11:25:44;;;;;;;4.00;2.05;;;;;;;;;;4946856;28;20031;-85
2022/07/30 11:28:43;;;;;;;3.95;1.98;;;;;;;;;;4949598;28;20023;-86
2022/07/30 11:31:32;;;;;;;5.50;2.00;;;;;;;;;;4963740;28;20957;-89
2022/07/30 11:34:33;;;;;;;2.10;1.90;;;;;;;;;;4953512;29;20110;-91
2022/07/30 11:37:01;;;;;;;4.55;2.00;;;;;;;;;;4931639;29;20043;-87
2022/07/30 11:39:56;;;;;;;3.95;2.20;;;;;;;;;;4962103;28;20043;-89
2022/07/30 11:42:29;;;;;;;3.53;2.17;;;;;;;;;;4964031;28;20043;-91
2022/07/30 11:45:14;;;;;;;6.15;2.20;;;;;;;;;;4948530;28;20050;-89
2022/07/30 11:47:41;;;;;;;2.97;2.05;;;;;;;;;;4946374;28;20077;-89
2022/07/30 11:50:17;;;;;;;4.15;2.00;;;;;;;;;;4947067;28;20039;-86
2022/07/30 11:52:43;;;;;;;4.00;2.20;;;;;;;;;;4949510;28;20043;-85
2022/07/30 11:55:08;;;;;;;5.18;2.30;;;;;;;;;;4943334;28;20032;-87
2022/07/30 11:57:41;;;;;;;3.47;2.30;;;;;;;;;;4948483;28;20036;-87
2022/07/30 12:00:07;;;;;;;7.95;3.15;;;;;;;;;;4944627;28;20053;-82
2022/07/30 12:02:32;;;;;;;3.00;2.40;;;;;;;;;;4959381;28;20047;-89
2022/07/30 12:04:58;;;;;;;3.10;2.38;;;;;;;;;;4943438;28;20047;-90
2022/07/30 12:07:23;;;;;;;5.13;2.50;;;;;;;;;;4964730;28;20031;-87
2022/07/30 12:09:49;;;;;;;4.45;2.20;;;;;;;;;;4964308;28;20045;-90
2022/07/30 12:12:24;;;;;;;5.63;2.30;;;;;;;;;;4944795;28;20808;-86
2022/07/30 12:14:50;;;;;;;4.85;2.33;;;;;;;;;;4963318;28;20035;-85
2022/07/30 12:17:15;;;;;;;3.97;2.20;;;;;;;;;;4947003;28;20042;-89
2022/07/30 12:19:45;;;;;;;2.95;2.10;;;;;;;;;;4945712;28;20035;-86
2022/07/30 12:22:10;;;;;;;3.10;1.85;;;;;;;;;;4943146;28;20031;-88
2022/07/30 12:24:36;;;;;;;9.75;1.98;;;;;;;;;;4944626;28;20557;-85
2022/07/30 12:27:06;;;;;;;3.22;1.77;;;;;;;;;;4944074;28;20039;-86
2022/07/30 12:29:33;;;;;;;2.55;1.67;;;;;;;;;;4943430;28;20047;-86
2022/07/30 12:32:00;;;;;;;5.32;2.08;;;;;;;;;;4943026;28;20519;-85
2022/07/30 12:34:26;;;;;;;3.78;1.80;;;;;;;;;;4947155;29;20035;-86
2022/07/30 12:36:52;;;;;;;3.53;2.50;;;;;;;;;;4944946;28;20035;-85
2022/07/30 12:39:23;;;;;;;2.65;1.98;;;;;;;;;;4944355;28;20047;-87
2022/07/30 12:41:50;;;;;;;3.97;2.20;;;;;;;;;;4945867;28;20043;-88
2022/07/30 12:44:36;;;;;;;2.80;1.83;;;;;;;;;;4944601;29;20047;-88
2022/07/30 12:47:03;;;;;;;2.80;2.17;;;;;;;;;;4960800;28;20051;-92
2022/07/30 12:49:29;;;;;;;3.65;2.22;;;;;;;;;;4950361;28;20023;-92
2022/07/30 12:51:54;;;;;;;2.60;1.88;;;;;;;;;;4949043;28;20043;-91
2022/07/30 12:54:20;;;;;;;2.40;1.80;;;;;;;;;;4951958;28;20038;-92
2022/07/30 12:57:01;;;;;;;3.90;1.98;;;;;;;;;;4950256;28;20045;-92
2022/07/30 12:59:31;;;;;;;4.30;1.70;;;;;;;;;;4945528;28;20098;-95
2022/07/30 13:01:59;;;;;;;4.15;2.25;;;;;;;;;;4958719;28;20051;-94
2022/07/30 13:04:25;;;;;;;1.95;1.67;;;;;;;;;;4954196;28;20027;-93
2022/07/30 13:07:11;;;;;;;2.58;1.73;;;;;;;;;;4952650;28;20035;-92
2022/07/30 13:09:42;;;;;;;3.20;1.60;;;;;;;;;;4951215;28;20039;-92
2022/07/30 13:12:12;;;;;;;2.05;1.73;;;;;;;;;;4956833;28;20035;-95
2022/07/30 13:14:37;;;;;;;2.78;1.55;;;;;;;;;;4953803;28;20091;-94
2022/07/30 13:17:03;;;;;;;5.30;1.73;;;;;;;;;;4952456;28;20043;-92
2022/07/30 13:19:28;;;;;;;2.25;1.52;;;;;;;;;;4953161;29;20019;-92
2022/07/30 13:21:54;;;;;;;1.95;1.70;;;;;;;;;;4954313;28;20044;-93
2022/07/30 13:24:19;;;;;;;2.22;1.60;;;;;;;;;;4947554;28;20039;-93
2022/07/30 13:26:45;;;;;;;2.58;1.75;;;;;;;;;;4969188;28;20155;-91
2022/07/30 13:29:12;;;;;;;3.53;1.90;;;;;;;;;;4949695;28;20035;-94
2022/07/30 13:31:39;;;;;;;4.50;1.83;;;;;;;;;;4966187;28;20038;-88
2022/07/30 13:34:04;;;;;;;2.22;1.83;;;;;;;;;;4953523;28;20035;-91
2022/07/30 13:36:30;;;;;;;2.30;1.73;;;;;;;;;;4944577;28;20463;-87
2022/07/30 13:38:55;;;;;;;3.92;1.75;;;;;;;;;;4949204;28;20043;-87
2022/07/30 13:41:20;;;;;;;2.15;1.95;;;;;;;;;;4950204;28;20039;-87
2022/07/30 13:43:46;;;;;;;2.10;1.65;;;;;;;;;;4948642;28;20043;-88
2022/07/30 13:46:11;;;;;;;3.58;1.95;;;;;;;;;;4950570;29;20034;-87
2022/07/30 13:48:37;;;;;;;3.08;1.85;;;;;;;;;;4946557;28;20112;-86
2022/07/30 13:51:04;;;;;;;2.40;1.90;;;;;;;;;;4960648;28;20038;-87
2022/07/30 13:53:29;;;;;;;4.05;1.98;;;;;;;;;;4950166;28;20089;-85
2022/07/30 13:55:55;;;;;;;3.15;1.95;;;;;;;;;;4963020;28;20043;-86
2022/07/30 13:58:21;;;;;;;2.67;2.10;;;;;;;;;;4948675;28;20023;-84
2022/07/30 14:00:47;;;;;;;3.65;1.90;;;;;;;;;;4946750;28;20046;-84
2022/07/30 14:03:13;;;;;;;3.05;1.92;;;;;;;;;;4947003;28;20082;-86
2022/07/30 14:05:40;;;;;;;2.33;2.05;;;;;;;;;;4943182;28;20039;-85
2022/07/30 14:08:06;;;;;;;2.90;1.98;;;;;;;;;;4957606;28;20334;-85
2022/07/30 14:10:33;;;;;;;4.50;1.80;;;;;;;;;;4947720;28;20087;-85
2022/07/30 14:12:59;;;;;;;2.95;1.80;;;;;;;;;;4947833;28;20402;-85
2022/07/30 14:15:27;;;;;;;2.58;1.80;;;;;;;;;;4959290;28;20590;-85
2022/07/30 14:17:53;;;;;;;3.97;2.00;;;;;;;;;;4946106;29;20058;-86
2022/07/30 14:20:19;;;;;;;2.85;2.00;;;;;;;;;;4947260;28;20422;-85
2022/07/30 14:22:44;;;;;;;2.58;1.98;;;;;;;;;;4945590;28;20030;-85
2022/07/30 14:25:10;;;;;;;4.03;1.90;;;;;;;;;;4941521;29;20035;-85
2022/07/30 14:27:37;;;;;;;2.15;1.67;;;;;;;;;;4947018;28;20110;-86
2022/07/30 14:30:05;;;;;;;2.85;1.98;;;;;;;;;;4948275;28;20676;-85
2022/07/30 14:32:30;;;;;;;2.55;1.90;;;;;;;;;;4949377;28;20049;-86
2022/07/30 14:34:56;;;;;;;2.17;1.70;;;;;;;;;;4948658;28;20043;-86
2022/07/30 14:37:21;;;;;;;3.38;1.80;;;;;;;;;;4964502;28;20031;-85
2022/07/30 14:39:46;;;;;;;3.15;2.03;;;;;;;;;;4945644;28;20043;-85
2022/07/30 14:42:12;;;;;;;2.92;2.20;;;;;;;;;;4950216;28;20126;-85
2022/07/30 14:44:37;;;;;;;4.25;2.15;;;;;;;;;;4948623;28;20134;-84
2022/07/30 14:47:03;;;;;;;3.47;2.00;;;;;;;;;;4946048;28;20044;-85
2022/07/30 14:49:28;;;;;;;4.07;1.90;;;;;;;;;;4949498;28;20118;-85